createdAt,value
2022-09-13T00:00:41.540Z,7.95
2022-09-13T00:03:09.909Z,6.57
2022-09-13T00:05:37.787Z,7.00
2022-09-13T00:08:05.580Z,7.05
2022-09-13T00:10:34.894Z,6.60
2022-09-13T00:13:01.774Z,6.68
2022-09-13T00:15:28.467Z,6.55
2022-09-13T00:17:55.030Z,6.65
2022-09-13T00:20:21.580Z,6.65
2022-09-13T00:22:47.985Z,7.00
2022-09-13T00:25:14.444Z,6.80
2022-09-13T00:27:40.975Z,6.43
2022-09-13T00:30:08.737Z,7.10
2022-09-13T00:32:35.854Z,6.95
2022-09-13T00:35:04.231Z,6.88
2022-09-13T00:37:32.424Z,7.30
2022-09-13T00:39:59.384Z,6.50
2022-09-13T00:42:27.935Z,5.70
2022-09-13T00:44:59.968Z,6.40
2022-09-13T00:47:39.137Z,6.63
2022-09-13T00:50:20.725Z,5.82
2022-09-13T00:52:54.896Z,6.40
2022-09-13T00:55:26.977Z,6.68
2022-09-13T00:57:57.624Z,6.35
2022-09-13T01:00:24.308Z,6.35
2022-09-13T01:02:55.722Z,6.45
2022-09-13T01:05:27.680Z,6.53
2022-09-13T01:07:56.410Z,6.07
2022-09-13T01:10:23.647Z,6.20
2022-09-13T01:12:50.088Z,6.50
2022-09-13T01:15:16.763Z,6.68
2022-09-13T01:17:44.110Z,5.93
2022-09-13T01:20:11.529Z,6.03
2022-09-13T01:22:59.955Z,6.18
2022-09-13T01:26:04.189Z,5.90
2022-09-13T01:28:42.847Z,6.10
2022-09-13T01:31:19.518Z,6.25
2022-09-13T01:34:06.849Z,5.07
2022-09-13T01:36:42.363Z,5.72
2022-09-13T01:39:36.927Z,5.55
2022-09-13T01:42:22.347Z,6.40
2022-09-13T01:44:57.734Z,6.57
2022-09-13T01:47:24.144Z,5.93
2022-09-13T01:50:38.110Z,5.80
2022-09-13T01:53:23.448Z,6.75
2022-09-13T01:56:00.981Z,5.65
2022-09-13T01:58:38.296Z,5.90
2022-09-13T02:01:08.806Z,6.75
2022-09-13T02:03:55.571Z,5.43
2022-09-13T02:06:33.868Z,6.20
2022-09-13T02:09:10.170Z,5.75
2022-09-13T02:11:39.929Z,6.55
2022-09-13T02:14:15.692Z,5.80
2022-09-13T02:17:06.888Z,5.97
2022-09-13T02:20:00.219Z,6.13
2022-09-13T02:22:34.669Z,6.00
2022-09-13T02:25:09.169Z,6.07
2022-09-13T02:27:38.715Z,5.95
2022-09-13T02:30:08.836Z,6.10
2022-09-13T02:32:44.233Z,5.32
2022-09-13T02:37:45.087Z,5.63
2022-09-13T02:40:17.848Z,5.80
2022-09-13T02:42:55.531Z,5.25
2022-09-13T02:45:29.545Z,5.38
2022-09-13T02:48:10.274Z,6.20
2022-09-13T02:50:44.063Z,5.72
2022-09-13T02:53:30.335Z,5.75
2022-09-13T02:56:23.926Z,5.45
2022-09-13T02:59:07.496Z,5.57
2022-09-13T03:01:36.490Z,5.63
2022-09-13T03:04:03.475Z,5.82
2022-09-13T03:06:30.082Z,5.45
2022-09-13T03:09:00.545Z,5.55
2022-09-13T03:11:58.101Z,5.22
2022-09-13T03:14:46.417Z,6.28
2022-09-13T03:17:24.370Z,5.85
2022-09-13T03:20:07.923Z,5.93
2022-09-13T03:23:12.620Z,5.95
2022-09-13T03:26:06.775Z,5.93
2022-09-13T03:28:53.586Z,6.70
2022-09-13T03:31:43.353Z,4.90
2022-09-13T03:34:24.029Z,6.20
2022-09-13T03:37:00.414Z,5.57
2022-09-13T03:40:00.225Z,5.20
2022-09-13T03:42:27.129Z,6.15
2022-09-13T03:44:57.127Z,5.80
2022-09-13T03:47:26.189Z,6.72
2022-09-13T03:49:53.532Z,6.57
2022-09-13T03:52:20.379Z,7.22
2022-09-13T03:54:46.816Z,5.75
2022-09-13T03:57:18.294Z,5.75
2022-09-13T03:59:48.460Z,6.55
2022-09-13T04:02:16.283Z,6.65
2022-09-13T04:04:43.928Z,5.80
2022-09-13T04:07:13.948Z,7.38
2022-09-13T04:09:40.387Z,6.22
2022-09-13T04:12:07.034Z,5.57
2022-09-13T04:14:33.520Z,6.57
2022-09-13T04:16:59.922Z,5.88
2022-09-13T04:19:27.110Z,5.55
2022-09-13T04:21:55.813Z,5.85
2022-09-13T04:24:27.314Z,5.70
2022-09-13T04:26:54.817Z,5.45
2022-09-13T04:29:23.003Z,5.68
2022-09-13T04:31:51.986Z,5.05
2022-09-13T04:34:18.764Z,5.70
2022-09-13T04:36:46.135Z,5.95
2022-09-13T04:39:14.080Z,5.55
2022-09-13T04:41:41.731Z,5.53
2022-09-13T04:44:08.252Z,6.13
2022-09-13T04:46:34.739Z,5.65
2022-09-13T04:49:01.179Z,5.72
2022-09-13T04:51:27.694Z,8.07
2022-09-13T04:53:55.971Z,7.15
2022-09-13T04:56:24.208Z,6.97
2022-09-13T04:58:51.565Z,6.22
2022-09-13T05:01:18.089Z,5.50
2022-09-13T05:03:44.760Z,5.55
2022-09-13T05:06:14.431Z,5.60
2022-09-13T05:08:41.218Z,5.50
2022-09-13T05:11:08.471Z,5.53
2022-09-13T05:13:34.989Z,5.65
2022-09-13T05:16:06.877Z,6.70
2022-09-13T05:18:35.750Z,5.55
2022-09-13T05:21:04.773Z,5.72
2022-09-13T05:23:32.117Z,6.15
2022-09-13T05:26:04.384Z,5.75
2022-09-13T05:28:33.907Z,5.65
2022-09-13T05:31:01.552Z,6.00
2022-09-13T05:33:30.933Z,6.60
2022-09-13T05:35:57.434Z,6.53
2022-09-13T05:38:24.362Z,5.93
2022-09-13T05:40:57.989Z,6.15
2022-09-13T05:43:31.527Z,6.05
2022-09-13T05:46:18.289Z,5.57
2022-09-13T05:48:44.935Z,5.45
2022-09-13T05:51:12.542Z,5.82
2022-09-13T05:53:40.298Z,6.35
2022-09-13T05:56:08.938Z,5.47
2022-09-13T05:58:41.526Z,5.22
2022-09-13T06:01:08.381Z,5.47
2022-09-13T06:03:36.183Z,5.63
2022-09-13T06:06:04.188Z,4.93
2022-09-13T06:08:32.678Z,5.18
2022-09-13T06:11:04.383Z,5.47
2022-09-13T06:13:31.386Z,5.65
2022-09-13T06:16:00.122Z,5.43
2022-09-13T06:18:27.133Z,4.72
2022-09-13T06:21:01.744Z,5.50
2022-09-13T06:23:29.591Z,5.68
2022-09-13T06:26:05.681Z,5.45
2022-09-13T06:28:37.173Z,5.80
2022-09-13T06:31:06.102Z,5.97
2022-09-13T06:33:36.678Z,5.50
2022-09-13T06:36:05.382Z,5.72
2022-09-13T06:38:32.188Z,4.88
2022-09-13T06:41:13.779Z,5.78
2022-09-13T06:43:41.817Z,5.72
2022-09-13T06:46:19.476Z,5.97
2022-09-13T06:48:48.736Z,5.72
2022-09-13T06:51:18.081Z,5.18
2022-09-13T06:53:46.663Z,5.60
2022-09-13T06:56:16.307Z,5.90
2022-09-13T06:58:44.515Z,5.68
2022-09-13T07:01:17.107Z,6.13
2022-09-13T07:03:46.708Z,5.43
2022-09-13T07:06:20.291Z,5.90
2022-09-13T07:08:49.677Z,5.97
2022-09-13T07:11:18.416Z,5.53
2022-09-13T07:13:52.388Z,5.43
2022-09-13T07:16:21.909Z,5.25
2022-09-13T07:18:53.296Z,5.95
2022-09-13T07:21:20.603Z,6.13
2022-09-13T07:23:47.125Z,6.47
2022-09-13T07:26:13.711Z,5.88
2022-09-13T07:28:45.701Z,6.07
2022-09-13T07:31:15.316Z,6.20
2022-09-13T07:33:43.046Z,6.10
2022-09-13T07:36:11.706Z,5.78
2022-09-13T07:38:45.217Z,5.80
2022-09-13T07:41:14.248Z,6.25
2022-09-13T07:43:40.935Z,6.13
2022-09-13T07:46:10.118Z,5.88
2022-09-13T07:48:39.478Z,4.63
2022-09-13T07:51:07.380Z,5.97
2022-09-13T07:53:35.192Z,6.53
2022-09-13T07:56:15.014Z,5.45
2022-09-13T07:58:43.501Z,6.00
2022-09-13T08:01:19.624Z,6.82
2022-09-13T08:03:55.175Z,6.63
2022-09-13T08:06:22.856Z,5.93
2022-09-13T08:08:49.748Z,5.00
2022-09-13T08:11:19.327Z,5.43
2022-09-13T08:13:47.441Z,2.03
2022-09-13T08:16:14.952Z,5.93
2022-09-13T08:18:45.973Z,6.22
2022-09-13T08:21:13.387Z,2.88
2022-09-13T08:23:40.162Z,6.20
2022-09-13T08:26:08.118Z,6.50
2022-09-13T08:28:35.662Z,6.70
2022-09-13T08:31:07.758Z,7.38
2022-09-13T08:33:35.126Z,6.78
2022-09-13T08:36:02.352Z,7.70
2022-09-13T08:38:29.355Z,7.07
2022-09-13T08:41:26.445Z,7.88
2022-09-13T08:44:11.467Z,6.70
2022-09-13T08:46:46.544Z,4.25
2022-09-13T08:49:34.667Z,6.50
2022-09-13T08:52:40.636Z,7.57
2022-09-13T08:55:24.039Z,8.05
2022-09-13T08:58:01.979Z,9.63
2022-09-13T09:00:39.607Z,8.20
2022-09-13T09:03:12.760Z,8.95
2022-09-13T09:05:49.818Z,8.32
2022-09-13T09:08:40.328Z,8.20
2022-09-13T09:11:20.744Z,8.32
2022-09-13T09:14:04.982Z,7.47
2022-09-13T09:16:50.580Z,7.28
2022-09-13T09:19:22.810Z,7.85
2022-09-13T09:21:51.668Z,9.23
2022-09-13T09:24:21.851Z,8.30
2022-09-13T09:26:48.354Z,8.90
2022-09-13T09:29:25.160Z,7.85
2022-09-13T09:31:59.098Z,8.32
2022-09-13T09:34:42.729Z,8.52
2022-09-13T09:37:09.244Z,6.68
2022-09-13T09:39:39.226Z,8.15
2022-09-13T09:42:13.364Z,8.20
2022-09-13T09:44:41.093Z,8.15
2022-09-13T09:47:14.408Z,7.68
2022-09-13T09:50:09.372Z,7.45
2022-09-13T09:52:44.834Z,8.00
2022-09-13T09:55:21.466Z,8.65
2022-09-13T09:57:55.848Z,7.55
2022-09-13T10:00:26.021Z,8.38
2022-09-13T10:02:57.510Z,9.23
2022-09-13T10:05:26.204Z,9.00
2022-09-13T10:07:55.236Z,8.98
2022-09-13T10:10:36.675Z,9.52
2022-09-13T10:13:08.180Z,9.45
2022-09-13T10:15:35.709Z,9.63
2022-09-13T10:18:42.805Z,9.60
2022-09-13T10:21:18.335Z,9.15
2022-09-13T10:23:50.820Z,8.63
2022-09-13T10:26:21.140Z,9.88
2022-09-13T10:29:00.107Z,10.43
2022-09-13T10:31:34.744Z,10.55
2022-09-13T10:34:13.747Z,10.00
2022-09-13T10:36:57.756Z,9.65
2022-09-13T10:39:25.733Z,11.10
2022-09-13T10:42:08.221Z,9.35
2022-09-13T10:44:47.453Z,10.00
2022-09-13T10:47:23.400Z,9.55
2022-09-13T10:49:54.849Z,9.25
2022-09-13T10:52:47.440Z,10.38
2022-09-13T10:55:19.939Z,9.93
2022-09-13T10:57:51.902Z,9.85
2022-09-13T11:00:25.628Z,10.13
2022-09-13T11:03:13.544Z,8.93
2022-09-13T11:05:45.993Z,9.50
2022-09-13T11:08:28.622Z,9.18
2022-09-13T11:11:32.887Z,10.27
2022-09-13T11:14:12.420Z,10.38
2022-09-13T11:16:45.981Z,8.05
2022-09-13T11:19:27.751Z,9.18
2022-09-13T11:22:13.184Z,10.98
2022-09-13T11:25:17.315Z,9.57
2022-09-13T11:28:05.433Z,10.85
2022-09-13T11:30:43.421Z,9.93
2022-09-13T11:33:19.763Z,10.40
2022-09-13T11:36:09.734Z,10.57
2022-09-13T11:38:56.350Z,10.73
2022-09-13T11:41:42.360Z,10.20
2022-09-13T11:44:41.196Z,13.02
2022-09-13T11:47:47.075Z,9.95
2022-09-13T11:51:01.243Z,9.75
2022-09-13T11:53:43.502Z,10.55
2022-09-13T11:56:16.551Z,10.18
2022-09-13T11:58:50.131Z,8.73
2022-09-13T12:01:43.145Z,8.40
2022-09-13T12:04:25.318Z,9.52
2022-09-13T12:07:00.182Z,10.05
2022-09-13T12:09:33.190Z,9.13
2022-09-13T12:12:05.701Z,10.57
2022-09-13T12:14:43.718Z,9.32
2022-09-13T12:17:25.166Z,10.65
2022-09-13T12:19:54.936Z,8.75
2022-09-13T12:22:28.895Z,10.73
2022-09-13T12:25:00.328Z,9.48
2022-09-13T12:27:30.088Z,11.00
2022-09-13T12:30:05.953Z,11.18
2022-09-13T12:32:32.663Z,12.05
2022-09-13T12:35:16.054Z,11.05
2022-09-13T12:38:07.219Z,10.55
2022-09-13T12:40:50.849Z,9.30
2022-09-13T12:43:26.618Z,9.13
2022-09-13T12:46:07.798Z,9.27
2022-09-13T12:48:46.346Z,9.35
2022-09-13T12:51:43.497Z,9.50
2022-09-13T12:54:27.425Z,10.27
2022-09-13T12:57:17.954Z,10.50
2022-09-13T13:00:04.462Z,8.35
2022-09-13T13:02:54.201Z,10.27
2022-09-13T13:05:30.822Z,9.93
2022-09-13T13:08:02.237Z,9.43
2022-09-13T13:10:33.095Z,10.45
2022-09-13T13:13:15.747Z,9.02
2022-09-13T13:15:46.605Z,9.02
2022-09-13T13:18:28.152Z,9.98
2022-09-13T13:20:54.604Z,9.25
2022-09-13T13:23:21.033Z,7.78
2022-09-13T13:26:09.345Z,9.75
2022-09-13T13:28:51.978Z,7.82
2022-09-13T13:31:24.826Z,8.35
2022-09-13T13:33:58.881Z,9.07
2022-09-13T13:36:33.745Z,7.43
2022-09-13T13:39:01.972Z,8.20
2022-09-13T13:41:38.265Z,8.27
2022-09-13T13:44:20.384Z,7.43
2022-09-13T13:46:51.556Z,8.10
2022-09-13T13:49:30.221Z,7.80
2022-09-13T13:52:08.478Z,7.65
2022-09-13T13:54:50.447Z,7.97
2022-09-13T13:57:41.404Z,8.20
2022-09-13T14:00:22.426Z,8.45
2022-09-13T14:02:54.457Z,7.60
2022-09-13T14:05:30.310Z,8.25
2022-09-13T14:08:02.679Z,8.93
2022-09-13T14:10:47.856Z,8.98
2022-09-13T14:16:13.915Z,8.13
2022-09-13T14:18:55.415Z,8.27
2022-09-13T14:21:26.712Z,7.22
2022-09-13T14:24:09.515Z,7.90
2022-09-13T14:26:36.745Z,8.40
2022-09-13T14:29:07.454Z,8.05
2022-09-13T14:31:33.970Z,7.90
2022-09-13T14:34:00.528Z,8.15
2022-09-13T14:36:27.635Z,7.07
2022-09-13T14:38:59.556Z,10.95
2022-09-13T14:41:32.808Z,7.80
2022-09-13T14:44:28.376Z,8.50
2022-09-13T14:47:03.351Z,8.20
2022-09-13T14:49:36.151Z,9.15
2022-09-13T14:52:09.008Z,10.50
2022-09-13T14:54:35.420Z,8.93
2022-09-13T14:57:05.153Z,7.85
2022-09-13T14:59:36.212Z,8.32
2022-09-13T15:02:13.528Z,9.70
2022-09-13T15:04:45.211Z,9.30
2022-09-13T15:07:39.108Z,8.63
2022-09-13T15:10:29.903Z,7.90
2022-09-13T15:12:56.373Z,9.23
2022-09-13T15:15:26.103Z,8.63
2022-09-13T15:18:16.665Z,8.77
2022-09-13T15:21:16.825Z,8.18
2022-09-13T15:23:50.454Z,7.90
2022-09-13T15:26:27.941Z,7.95
2022-09-13T15:29:04.148Z,8.82
2022-09-13T15:31:32.945Z,8.90
2022-09-13T15:34:17.777Z,8.35
2022-09-13T15:37:02.807Z,7.68
2022-09-13T15:39:29.355Z,8.23
2022-09-13T15:42:00.635Z,8.35
2022-09-13T15:44:29.786Z,8.05
2022-09-13T15:47:01.934Z,8.48
2022-09-13T15:49:29.306Z,8.38
2022-09-13T15:52:02.061Z,8.23
2022-09-13T15:54:41.304Z,8.40
2022-09-13T15:57:13.610Z,8.82
2022-09-13T15:59:40.213Z,7.38
2022-09-13T16:02:21.478Z,8.60
2022-09-13T16:04:48.514Z,9.25
2022-09-13T16:07:15.976Z,10.63
2022-09-13T16:09:42.708Z,11.38
2022-09-13T16:12:09.582Z,10.82
2022-09-13T16:14:36.041Z,8.95
2022-09-13T16:17:06.837Z,9.48
2022-09-13T16:19:33.757Z,9.50
2022-09-13T16:22:00.190Z,9.05
2022-09-13T16:24:27.178Z,9.13
2022-09-13T16:26:54.103Z,8.35
2022-09-13T16:29:20.559Z,9.00
2022-09-13T16:31:47.152Z,9.00
2022-09-13T16:34:13.596Z,8.45
2022-09-13T16:36:40.100Z,8.48
2022-09-13T16:39:06.537Z,8.35
2022-09-13T16:41:33.019Z,7.68
2022-09-13T16:43:59.565Z,10.10
2022-09-13T16:46:26.207Z,8.05
2022-09-13T16:48:56.287Z,8.32
2022-09-13T16:51:23.701Z,9.23
2022-09-13T16:53:51.948Z,7.78
2022-09-13T16:56:21.501Z,8.18
2022-09-13T16:58:48.744Z,7.50
2022-09-13T17:01:18.057Z,7.30
2022-09-13T17:03:44.696Z,8.55
2022-09-13T17:06:14.254Z,8.05
2022-09-13T17:08:42.889Z,7.90
2022-09-13T17:11:12.208Z,7.85
2022-09-13T17:13:40.014Z,7.15
2022-09-13T17:16:18.533Z,6.57
2022-09-13T17:18:45.197Z,7.40
2022-09-13T17:21:11.661Z,6.60
2022-09-13T17:23:38.220Z,6.82
2022-09-13T17:26:04.661Z,6.97
2022-09-13T17:28:31.215Z,6.43
2022-09-13T17:31:01.805Z,6.75
2022-09-13T17:33:29.071Z,6.65
2022-09-13T17:36:00.550Z,6.90
2022-09-13T17:38:27.367Z,7.30
2022-09-13T17:41:01.902Z,6.97
2022-09-13T17:43:28.714Z,6.93
2022-09-13T17:45:55.486Z,6.35
2022-09-13T17:48:21.998Z,5.88
2022-09-13T17:50:48.438Z,6.18
2022-09-13T17:53:14.914Z,6.80
2022-09-13T17:55:49.213Z,7.38
2022-09-13T17:58:16.424Z,6.22
2022-09-13T18:00:43.765Z,6.13
2022-09-13T18:03:10.609Z,5.90
2022-09-13T18:05:37.311Z,6.28
2022-09-13T18:08:03.838Z,5.70
2022-09-13T18:10:57.954Z,4.72
2022-09-13T18:13:17.475Z,4.53
2022-09-13T18:15:43.966Z,4.07
2022-09-13T18:18:10.492Z,4.28
2022-09-13T18:20:40.503Z,4.35
2022-09-13T18:23:08.051Z,4.70
2022-09-13T18:25:34.489Z,4.45
2022-09-13T18:28:01.045Z,3.60
2022-09-13T18:30:27.451Z,4.35
2022-09-13T18:32:54.195Z,3.75
2022-09-13T18:35:20.660Z,3.72
2022-09-13T18:37:47.091Z,3.60
2022-09-13T18:40:15.252Z,3.75
2022-09-13T18:42:45.200Z,3.88
2022-09-13T18:45:11.923Z,3.97
2022-09-13T18:47:38.723Z,4.13
2022-09-13T18:50:08.164Z,3.88
2022-09-13T18:52:39.026Z,3.67
2022-09-13T18:55:05.852Z,4.03
2022-09-13T18:57:32.327Z,4.00
2022-09-13T18:59:59.450Z,3.58
2022-09-13T19:02:25.956Z,3.70
2022-09-13T19:04:52.511Z,4.07
2022-09-13T19:07:21.206Z,2.97
2022-09-13T19:09:47.637Z,3.05
2022-09-13T19:12:14.044Z,4.70
2022-09-13T19:14:40.508Z,3.00
2022-09-13T19:17:06.983Z,3.00
2022-09-13T19:19:35.448Z,3.10
2022-09-13T19:22:01.880Z,2.72
2022-09-13T19:24:28.389Z,2.58
2022-09-13T19:26:54.844Z,2.63
2022-09-13T19:29:23.026Z,2.22
2022-09-13T19:31:52.084Z,2.08
2022-09-13T19:34:20.185Z,2.05
2022-09-13T19:36:48.885Z,1.77
2022-09-13T19:39:15.344Z,2.00
2022-09-13T19:41:41.872Z,2.25
2022-09-13T19:44:10.676Z,1.80
2022-09-13T19:46:40.175Z,1.73
2022-09-13T19:49:11.745Z,2.20
2022-09-13T19:51:39.464Z,1.38
2022-09-13T19:54:07.615Z,1.70
2022-09-13T19:56:37.874Z,2.08
2022-09-13T19:59:04.755Z,1.40
2022-09-13T20:01:34.230Z,2.60
2022-09-13T20:04:03.568Z,1.80
2022-09-13T20:06:35.842Z,1.30
2022-09-13T20:09:04.097Z,1.90
2022-09-13T20:11:31.444Z,1.17
2022-09-13T20:13:59.423Z,1.52
2022-09-13T20:16:32.483Z,1.65
2022-09-13T20:18:59.005Z,1.35
2022-09-13T20:21:30.892Z,1.35
2022-09-13T20:24:00.624Z,1.90
2022-09-13T20:26:27.869Z,1.23
2022-09-13T20:29:00.402Z,1.20
2022-09-13T20:31:28.213Z,1.00
2022-09-13T20:34:00.000Z,1.23
2022-09-13T20:36:30.098Z,1.48
2022-09-13T20:39:02.401Z,1.58
2022-09-13T20:41:30.374Z,1.50
2022-09-13T20:43:59.024Z,1.00
2022-09-13T20:46:25.911Z,1.30
2022-09-13T20:48:52.428Z,1.27
2022-09-13T20:51:25.219Z,1.25
2022-09-13T20:53:56.329Z,1.35
2022-09-13T20:56:23.574Z,1.27
2022-09-13T20:58:57.349Z,1.15
2022-09-13T21:01:24.654Z,1.58
2022-09-13T21:03:53.392Z,1.15
2022-09-13T21:06:21.701Z,1.05
2022-09-13T21:08:52.403Z,1.42
2022-09-13T21:11:24.669Z,1.50
2022-09-13T21:13:53.399Z,1.40
2022-09-13T21:16:21.219Z,1.55
2022-09-13T21:18:47.929Z,1.15
2022-09-13T21:21:20.078Z,1.38
2022-09-13T21:23:47.767Z,1.25
2022-09-13T21:26:20.157Z,1.00
2022-09-13T21:28:47.304Z,1.10
2022-09-13T21:31:21.478Z,1.55
2022-09-13T21:33:48.749Z,1.60
2022-09-13T21:36:15.295Z,1.55
2022-09-13T21:38:41.710Z,1.42
2022-09-13T21:41:12.697Z,1.02
2022-09-13T21:43:39.681Z,1.20
2022-09-13T21:46:15.002Z,1.17
2022-09-13T21:48:45.089Z,1.30
2022-09-13T21:51:20.829Z,1.17
2022-09-13T21:53:48.383Z,1.02
2022-09-13T21:56:18.215Z,1.13
2022-09-13T21:58:52.991Z,1.73
2022-09-13T22:01:22.657Z,1.27
2022-09-13T22:03:51.666Z,1.58
2022-09-13T22:06:19.819Z,1.42
2022-09-13T22:08:48.790Z,1.73
2022-09-13T22:11:17.926Z,1.40
2022-09-13T22:13:45.868Z,1.08
2022-09-13T22:16:21.650Z,1.15
2022-09-13T22:18:56.391Z,1.17
2022-09-13T22:21:25.906Z,1.42
2022-09-13T22:23:52.470Z,1.38
2022-09-13T22:26:24.290Z,1.67
2022-09-13T22:28:52.442Z,1.50
2022-09-13T22:31:21.616Z,1.38
2022-09-13T22:33:48.857Z,1.20
2022-09-13T22:36:16.355Z,1.55
2022-09-13T22:38:44.835Z,1.30
2022-09-13T22:41:14.494Z,1.88
2022-09-13T22:43:41.618Z,2.13
2022-09-13T22:46:12.466Z,1.60
2022-09-13T22:48:40.108Z,1.73
2022-09-13T22:51:08.175Z,1.50
2022-09-13T22:53:36.932Z,1.92
2022-09-13T22:56:18.658Z,1.45
2022-09-13T22:58:45.892Z,2.05
2022-09-13T23:01:18.795Z,1.60
2022-09-13T23:03:46.725Z,1.50
2022-09-13T23:06:15.615Z,1.42
2022-09-13T23:08:42.331Z,1.63
2022-09-13T23:11:19.909Z,1.30
2022-09-13T23:13:48.728Z,1.63
2022-09-13T23:16:18.723Z,1.80
2022-09-13T23:18:45.842Z,1.50
2022-09-13T23:21:12.511Z,1.60
2022-09-13T23:23:39.511Z,1.50
2022-09-13T23:26:12.418Z,1.70
2022-09-13T23:28:39.393Z,1.60
2022-09-13T23:31:14.706Z,1.30
2022-09-13T23:33:43.331Z,1.67
2022-09-13T23:36:12.112Z,1.48
2022-09-13T23:38:40.435Z,1.48
2022-09-13T23:41:07.586Z,2.00
2022-09-13T23:43:34.250Z,2.00
2022-09-13T23:46:00.697Z,2.00
2022-09-13T23:48:27.383Z,1.70
2022-09-13T23:51:06.036Z,1.63
2022-09-13T23:53:33.639Z,1.42
2022-09-13T23:56:00.165Z,1.83
2022-09-13T23:58:26.741Z,1.33
